EDW84 LSZH-FACT
Flight info
| Callsign | EDW84 |
|---|---|
| Flight time | N/A |
| Altitude | 33000 |
| Route | VEBIT T53 GERSA DCT SOSON DCT ODINA DCT PIDAD DCT TALEP DCT VAREK DCT ERPIN DCT ETOIL DCT CIRTA UM2 CSO UM998 ENBUT DCT EBIMU UG727 BZ DCT KSA UT943 VEDRY UN185 OKLOK UQ23 DUMDO DCT ERDAS ERDAS1B |
| Aircraft | A343/H-SDE2E3FGHIJ4J5M1RWXY/LB1D1 |
Departure
| Time | 2026-04-26 13:30 |
|---|---|
| Airport | Zürich Airport (LSZH) |
Arrival
| Time | N/A |
|---|---|
| Airport | Cape Town International Airport (FACT) |
| Time | Latitude | Longitude | Altitude | Speed | Heading |
|---|---|---|---|---|---|
| 2026-04-26 12:47 | 47.46186 | 8.55397 | 1409 ft | 0 kts | 186° |
| 2026-04-26 13:13 | 47.46209 | 8.55398 | 1404 ft | 4 kts | 173° |
| 2026-04-26 13:13 | 47.46235 | 8.55388 | 1410 ft | 4 kts | 153° |
| 2026-04-26 13:13 | 47.46256 | 8.55366 | 1410 ft | 4 kts | 128° |
| 2026-04-26 13:13 | 47.46267 | 8.55334 | 1409 ft | 2 kts | 97° |
| 2026-04-26 13:14 | 47.46268 | 8.55326 | 1409 ft | 0 kts | 96° |
| 2026-04-26 13:18 | 47.46267 | 8.55336 | 1409 ft | 4 kts | 96° |
| 2026-04-26 13:18 | 47.46262 | 8.55408 | 1404 ft | 10 kts | 96° |
| 2026-04-26 13:18 | 47.46241 | 8.55713 | 1404 ft | 18 kts | 95° |
| 2026-04-26 13:19 | 47.46228 | 8.55904 | 1412 ft | 20 kts | 97° |
| 2026-04-26 13:19 | 47.46154 | 8.56072 | 1419 ft | 21 kts | 139° |
| 2026-04-26 13:19 | 47.46040 | 8.56227 | 1420 ft | 24 kts | 137° |
| 2026-04-26 13:19 | 47.45922 | 8.56385 | 1423 ft | 17 kts | 138° |
| 2026-04-26 13:20 | 47.45840 | 8.56494 | 1423 ft | 14 kts | 138° |
| 2026-04-26 13:20 | 47.45794 | 8.56615 | 1427 ft | 13 kts | 98° |
| 2026-04-26 13:20 | 47.45787 | 8.56742 | 1424 ft | 11 kts | 94° |
| 2026-04-26 13:20 | 47.45780 | 8.56845 | 1425 ft | 9 kts | 96° |
| 2026-04-26 13:21 | 47.45776 | 8.56899 | 1429 ft | 0 kts | 96° |
| 2026-04-26 13:27 | 47.45773 | 8.56940 | 1427 ft | 8 kts | 97° |
| 2026-04-26 13:28 | 47.45736 | 8.57023 | 1429 ft | 11 kts | 153° |
| 2026-04-26 13:28 | 47.45678 | 8.57027 | 1429 ft | 5 kts | 206° |
| 2026-04-26 13:28 | 47.45668 | 8.56997 | 1428 ft | 4 kts | 247° |
| 2026-04-26 13:28 | 47.45668 | 8.56929 | 1427 ft | 6 kts | 276° |
| 2026-04-26 13:29 | 47.45668 | 8.56927 | 1427 ft | 0 kts | 276° |
| 2026-04-26 13:29 | 47.45676 | 8.56826 | 1425 ft | 39 kts | 276° |
| 2026-04-26 13:29 | 47.45731 | 8.56058 | 1418 ft | 109 kts | 276° |
| 2026-04-26 13:29 | 47.45828 | 8.54666 | 1403 ft | 165 kts | 275° |
| 2026-04-26 13:30 | 47.45955 | 8.52850 | 1787 ft | 182 kts | 278° |
| 2026-04-26 13:30 | 47.46102 | 8.50975 | 2478 ft | 183 kts | 281° |
| 2026-04-26 13:30 | 47.46227 | 8.49108 | 3048 ft | 189 kts | 269° |
| 2026-04-26 13:30 | 47.45750 | 8.47233 | 3369 ft | 208 kts | 233° |
| 2026-04-26 13:31 | 47.44762 | 8.45517 | 3612 ft | 230 kts | 229° |
| 2026-04-26 13:31 | 47.43676 | 8.43594 | 3905 ft | 256 kts | 231° |
| 2026-04-26 13:31 | 47.42545 | 8.41475 | 4397 ft | 270 kts | 232° |
| 2026-04-26 13:31 | 47.41369 | 8.39232 | 4883 ft | 281 kts | 232° |
| 2026-04-26 13:32 | 47.40180 | 8.36956 | 4972 ft | 278 kts | 232° |
| 2026-04-26 13:32 | 47.39041 | 8.34647 | 4982 ft | 278 kts | 238° |
| 2026-04-26 13:32 | 47.38090 | 8.32202 | 4960 ft | 276 kts | 242° |
| 2026-04-26 13:32 | 47.37139 | 8.29709 | 4979 ft | 281 kts | 235° |
| 2026-04-26 13:33 | 47.35775 | 8.27657 | 5161 ft | 284 kts | 213° |
| 2026-04-26 13:33 | 47.33935 | 8.26635 | 5760 ft | 284 kts | 183° |
| 2026-04-26 13:33 | 47.32038 | 8.27019 | 6822 ft | 272 kts | 160° |
| 2026-04-26 13:33 | 47.30345 | 8.28249 | 7666 ft | 273 kts | 144° |
| 2026-04-26 13:34 | 47.28844 | 8.30007 | 8353 ft | 278 kts | 138° |
| 2026-04-26 13:34 | 47.27410 | 8.31934 | 9073 ft | 280 kts | 137° |
| 2026-04-26 13:34 | 47.25955 | 8.33874 | 9778 ft | 284 kts | 140° |
| 2026-04-26 13:34 | 47.24955 | 8.35139 | 10195 ft | 287 kts | 141° |
| 2026-04-26 13:35 | 47.22794 | 8.37644 | 10718 ft | 306 kts | 144° |
| 2026-04-26 13:35 | 47.20999 | 8.39472 | 10976 ft | 322 kts | 148° |
| 2026-04-26 13:35 | 47.19067 | 8.41206 | 11259 ft | 337 kts | 151° |
| 2026-04-26 13:35 | 47.16953 | 8.42850 | 11562 ft | 351 kts | 155° |
| 2026-04-26 13:36 | 47.14679 | 8.44310 | 12017 ft | 360 kts | 159° |
| 2026-04-26 13:36 | 47.12303 | 8.45562 | 12566 ft | 365 kts | 161° |
| 2026-04-26 13:36 | 47.09942 | 8.47030 | 13160 ft | 370 kts | 154° |
| 2026-04-26 13:36 | 47.07686 | 8.48903 | 13750 ft | 375 kts | 150° |
| 2026-04-26 13:37 | 47.05417 | 8.50867 | 14229 ft | 380 kts | 152° |
| 2026-04-26 13:37 | 47.02998 | 8.52421 | 14744 ft | 382 kts | 163° |
| 2026-04-26 13:37 | 47.00421 | 8.53422 | 15249 ft | 385 kts | 170° |
| 2026-04-26 13:37 | 46.97795 | 8.54109 | 15780 ft | 388 kts | 173° |
| 2026-04-26 13:38 | 46.95112 | 8.54615 | 16371 ft | 391 kts | 175° |
| 2026-04-26 13:38 | 46.92393 | 8.55017 | 16945 ft | 393 kts | 176° |
| 2026-04-26 13:38 | 46.89653 | 8.55366 | 17475 ft | 398 kts | 176° |
| 2026-04-26 13:38 | 46.86883 | 8.55710 | 18040 ft | 401 kts | 177° |
| 2026-04-26 13:39 | 46.84097 | 8.56076 | 18625 ft | 402 kts | 177° |
| 2026-04-26 13:39 | 46.81299 | 8.56459 | 19067 ft | 406 kts | 176° |
| 2026-04-26 13:39 | 46.78475 | 8.56861 | 19543 ft | 409 kts | 176° |
| 2026-04-26 13:39 | 46.75638 | 8.57275 | 20047 ft | 411 kts | 176° |
| 2026-04-26 13:40 | 46.72788 | 8.57688 | 20539 ft | 413 kts | 176° |
| 2026-04-26 13:40 | 46.69914 | 8.58099 | 20989 ft | 416 kts | 176° |
| 2026-04-26 13:40 | 46.67016 | 8.58506 | 21375 ft | 420 kts | 176° |
| 2026-04-26 13:40 | 46.64096 | 8.58919 | 21890 ft | 421 kts | 176° |
| 2026-04-26 13:41 | 46.61172 | 8.59323 | 22403 ft | 422 kts | 176° |
| 2026-04-26 13:41 | 46.58226 | 8.59726 | 22849 ft | 425 kts | 176° |
| 2026-04-26 13:41 | 46.55277 | 8.60143 | 23278 ft | 428 kts | 176° |
| 2026-04-26 13:41 | 46.52336 | 8.60569 | 23717 ft | 430 kts | 176° |